sensor_id;sensor_type;location;lat;lon;timestamp;pressure;altitude;pressure_sealevel;temperature;humidity
7433;BME280;32233;49.500;7.764;2024-01-15T00:01:47;97494.88;;;-5.03;100.00
7433;BME280;32233;49.500;7.764;2024-01-15T00:04:14;97500.50;;;-5.18;100.00
7433;BME280;32233;49.500;7.764;2024-01-15T00:06:41;97489.72;;;-5.03;100.00
7433;BME280;32233;49.500;7.764;2024-01-15T00:09:08;97484.22;;;-4.98;100.00
7433;BME280;32233;49.500;7.764;2024-01-15T00:11:34;97482.94;;;-5.04;100.00
7433;BME280;32233;49.500;7.764;2024-01-15T00:14:01;97483.75;;;-5.03;100.00
7433;BME280;32233;49.500;7.764;2024-01-15T00:16:27;97472.63;;;-5.04;100.00
7433;BME280;32233;49.500;7.764;2024-01-15T00:18:54;97472.63;;;-5.04;100.00
7433;BME280;32233;49.500;7.764;2024-01-15T00:21:20;97473.34;;;-5.02;100.00
7433;BME280;32233;49.500;7.764;2024-01-15T00:23:47;97461.25;;;-5.01;100.00
7433;BME280;32233;49.500;7.764;2024-01-15T00:26:13;97458.00;;;-5.03;100.00
7433;BME280;32233;49.500;7.764;2024-01-15T00:28:40;97450.88;;;-4.90;100.00
7433;BME280;32233;49.500;7.764;2024-01-15T00:31:07;97449.16;;;-5.10;100.00
7433;BME280;32233;49.500;7.764;2024-01-15T00:33:33;97440.97;;;-5.15;100.00
7433;BME280;32233;49.500;7.764;2024-01-15T00:36:00;97448.59;;;-5.14;100.00
7433;BME280;32233;49.500;7.764;2024-01-15T00:38:27;97448.13;;;-4.98;100.00
7433;BME280;32233;49.500;7.764;2024-01-15T00:40:54;97446.78;;;-4.92;100.00
7433;BME280;32233;49.500;7.764;2024-01-15T00:43:21;97451.78;;;-5.01;100.00
7433;BME280;32233;49.500;7.764;2024-01-15T00:45:47;97442.91;;;-5.08;100.00
7433;BME280;32233;49.500;7.764;2024-01-15T00:48:14;97446.31;;;-5.07;100.00
7433;BME280;32233;49.500;7.764;2024-01-15T00:50:41;97439.94;;;-5.03;100.00
7433;BME280;32233;49.500;7.764;2024-01-15T00:53:07;97439.38;;;-5.07;100.00
7433;BME280;32233;49.500;7.764;2024-01-15T00:55:34;97437.13;;;-5.00;100.00
7433;BME280;32233;49.500;7.764;2024-01-15T00:58:00;97435.78;;;-4.94;100.00
7433;BME280;32233;49.500;7.764;2024-01-15T01:00:27;97435.13;;;-4.87;100.00
7433;BME280;32233;49.500;7.764;2024-01-15T01:02:53;97436.88;;;-4.97;100.00
7433;BME280;32233;49.500;7.764;2024-01-15T01:05:20;97442.31;;;-4.90;100.00
7433;BME280;32233;49.500;7.764;2024-01-15T01:07:46;97438.53;;;-4.86;100.00
7433;BME280;32233;49.500;7.764;2024-01-15T01:10:13;97433.28;;;-4.75;100.00
7433;BME280;32233;49.500;7.764;2024-01-15T01:12:40;97428.28;;;-4.67;100.00
7433;BME280;32233;49.500;7.764;2024-01-15T01:15:06;97447.03;;;-4.65;100.00
7433;BME280;32233;49.500;7.764;2024-01-15T01:17:33;97446.34;;;-4.67;100.00
7433;BME280;32233;49.500;7.764;2024-01-15T01:20:00;97446.34;;;-4.67;100.00
7433;BME280;32233;49.500;7.764;2024-01-15T01:22:26;97447.16;;;-4.66;100.00
7433;BME280;32233;49.500;7.764;2024-01-15T01:24:53;97441.06;;;-4.65;100.00
7433;BME280;32233;49.500;7.764;2024-01-15T01:27:19;97448.91;;;-4.77;100.00
7433;BME280;32233;49.500;7.764;2024-01-15T01:29:46;97455.94;;;-4.79;100.00
7433;BME280;32233;49.500;7.764;2024-01-15T01:32:13;97448.91;;;-4.77;100.00
7433;BME280;32233;49.500;7.764;2024-01-15T01:34:40;97446.44;;;-4.78;100.00
7433;BME280;32233;49.500;7.764;2024-01-15T01:37:09;97443.75;;;-4.67;100.00
7433;BME280;32233;49.500;7.764;2024-01-15T01:39:36;97455.47;;;-4.93;100.00
7433;BME280;32233;49.500;7.764;2024-01-15T01:42:03;97442.22;;;-4.79;100.00
7433;BME280;32233;49.500;7.764;2024-01-15T01:44:30;97455.84;;;-4.67;100.00
7433;BME280;32233;49.500;7.764;2024-01-15T01:46:57;97450.69;;;-4.67;100.00
7433;BME280;32233;49.500;7.764;2024-01-15T01:49:25;97444.97;;;-4.71;100.00
7433;BME280;32233;49.500;7.764;2024-01-15T01:51:53;97448.28;;;-4.59;100.00
7433;BME280;32233;49.500;7.764;2024-01-15T01:54:20;97452.59;;;-4.69;100.00
7433;BME280;32233;49.500;7.764;2024-01-15T01:56:48;97440.06;;;-4.74;100.00
7433;BME280;32233;49.500;7.764;2024-01-15T01:59:15;97445.69;;;-4.69;100.00
7433;BME280;32233;49.500;7.764;2024-01-15T02:01:43;97438.78;;;-4.59;100.00
7433;BME280;32233;49.500;7.764;2024-01-15T02:04:13;97429.00;;;-4.65;100.00
7433;BME280;32233;49.500;7.764;2024-01-15T02:06:46;97426.66;;;-4.68;100.00
7433;BME280;32233;49.500;7.764;2024-01-15T02:09:13;97424.50;;;-4.63;100.00
7433;BME280;32233;49.500;7.764;2024-01-15T02:11:42;97421.94;;;-4.63;100.00
7433;BME280;32233;49.500;7.764;2024-01-15T02:14:09;97428.13;;;-4.75;100.00
7433;BME280;32233;49.500;7.764;2024-01-15T02:16:36;97426.53;;;-4.66;100.00
7433;BME280;32233;49.500;7.764;2024-01-15T02:19:02;97418.22;;;-4.70;100.00
7433;BME280;32233;49.500;7.764;2024-01-15T02:21:29;97416.19;;;-4.76;100.00
7433;BME280;32233;49.500;7.764;2024-01-15T02:23:58;97414.16;;;-4.72;100.00
7433;BME280;32233;49.500;7.764;2024-01-15T02:26:24;97410.81;;;-4.63;100.00
7433;BME280;32233;49.500;7.764;2024-01-15T02:28:51;97412.16;;;-4.59;100.00
7433;BME280;32233;49.500;7.764;2024-01-15T02:31:18;97410.00;;;-4.64;100.00
7433;BME280;32233;49.500;7.764;2024-01-15T02:33:44;97399.91;;;-4.77;100.00
7433;BME280;32233;49.500;7.764;2024-01-15T02:36:13;97411.06;;;-4.66;100.00
7433;BME280;32233;49.500;7.764;2024-01-15T02:38:39;97400.78;;;-4.47;100.00
7433;BME280;32233;49.500;7.764;2024-01-15T02:41:07;97403.22;;;-4.65;100.00
7433;BME280;32233;49.500;7.764;2024-01-15T02:43:34;97393.97;;;-4.67;100.00
7433;BME280;32233;49.500;7.764;2024-01-15T02:46:00;97388.97;;;-4.59;100.00
7433;BME280;32233;49.500;7.764;2024-01-15T02:48:27;97396.69;;;-4.59;100.00
7433;BME280;32233;49.500;7.764;2024-01-15T02:50:54;97400.13;;;-4.49;100.00
7433;BME280;32233;49.500;7.764;2024-01-15T02:53:20;97403.38;;;-4.47;100.00
7433;BME280;32233;49.500;7.764;2024-01-15T02:55:47;97393.56;;;-4.63;100.00
7433;BME280;32233;49.500;7.764;2024-01-15T02:58:14;97383.66;;;-4.58;100.00
7433;BME280;32233;49.500;7.764;2024-01-15T03:00:40;97372.28;;;-4.45;100.00
7433;BME280;32233;49.500;7.764;2024-01-15T03:03:07;97377.47;;;-4.36;100.00
7433;BME280;32233;49.500;7.764;2024-01-15T03:05:34;97367.13;;;-4.55;100.00
7433;BME280;32233;49.500;7.764;2024-01-15T03:08:01;97373.50;;;-4.50;100.00
7433;BME280;32233;49.500;7.764;2024-01-15T03:10:27;97375.41;;;-4.52;100.00
7433;BME280;32233;49.500;7.764;2024-01-15T03:12:54;97366.00;;;-4.62;100.00
7433;BME280;32233;49.500;7.764;2024-01-15T03:15:20;97379.09;;;-4.44;100.00
7433;BME280;32233;49.500;7.764;2024-01-15T03:17:47;97383.28;;;-4.53;100.00
7433;BME280;32233;49.500;7.764;2024-01-15T03:20:14;97394.97;;;-4.49;100.00
7433;BME280;32233;49.500;7.764;2024-01-15T03:22:40;97380.16;;;-4.47;100.00
7433;BME280;32233;49.500;7.764;2024-01-15T03:25:07;97383.69;;;-4.48;100.00
7433;BME280;32233;49.500;7.764;2024-01-15T03:27:33;97380.16;;;-4.47;100.00
7433;BME280;32233;49.500;7.764;2024-01-15T03:30:00;97379.91;;;-4.44;100.00
7433;BME280;32233;49.500;7.764;2024-01-15T03:32:28;97380.16;;;-4.37;100.00
7433;BME280;32233;49.500;7.764;2024-01-15T03:34:55;97384.53;;;-4.28;100.00
7433;BME280;32233;49.500;7.764;2024-01-15T03:37:21;97375.03;;;-4.28;100.00
7433;BME280;32233;49.500;7.764;2024-01-15T03:39:48;97366.47;;;-4.28;100.00
7433;BME280;32233;49.500;7.764;2024-01-15T03:42:15;97357.78;;;-4.27;100.00
7433;BME280;32233;49.500;7.764;2024-01-15T03:44:42;97346.66;;;-4.28;100.00
7433;BME280;32233;49.500;7.764;2024-01-15T03:47:09;97345.97;;;-4.30;100.00
7433;BME280;32233;49.500;7.764;2024-01-15T03:49:35;97343.94;;;-4.36;100.00
7433;BME280;32233;49.500;7.764;2024-01-15T03:52:02;97349.78;;;-4.24;100.00
7433;BME280;32233;49.500;7.764;2024-01-15T03:54:29;97353.03;;;-4.22;100.00
7433;BME280;32233;49.500;7.764;2024-01-15T03:56:55;97355.59;;;-4.22;100.00
7433;BME280;32233;49.500;7.764;2024-01-15T03:59:22;97349.78;;;-4.14;100.00
7433;BME280;32233;49.500;7.764;2024-01-15T04:01:49;97348.25;;;-4.17;100.00
7433;BME280;32233;49.500;7.764;2024-01-15T04:04:18;97341.09;;;-4.23;100.00
7433;BME280;32233;49.500;7.764;2024-01-15T04:06:45;97342.44;;;-4.19;100.00
7433;BME280;32233;49.500;7.764;2024-01-15T04:09:13;97343.25;;;-4.18;100.00
7433;BME280;32233;49.500;7.764;2024-01-15T04:11:40;97333.88;;;-4.10;100.00
7433;BME280;32233;49.500;7.764;2024-01-15T04:14:07;97323.56;;;-4.10;100.00
7433;BME280;32233;49.500;7.764;2024-01-15T04:16:33;97319.75;;;-4.15;100.00
7433;BME280;32233;49.500;7.764;2024-01-15T04:18:59;97311.06;;;-4.24;100.00
7433;BME280;32233;49.500;7.764;2024-01-15T04:21:26;97310.78;;;-4.11;100.00
7433;BME280;32233;49.500;7.764;2024-01-15T04:23:53;97320.97;;;-4.10;100.00
7433;BME280;32233;49.500;7.764;2024-01-15T04:26:19;97328.19;;;-4.04;100.00
7433;BME280;32233;49.500;7.764;2024-01-15T04:28:46;97327.75;;;-3.99;100.00
7433;BME280;32233;49.500;7.764;2024-01-15T04:31:23;97319.31;;;-4.01;100.00
7433;BME280;32233;49.500;7.764;2024-01-15T04:33:50;97306.84;;;-4.15;100.00
7433;BME280;32233;49.500;7.764;2024-01-15T04:36:17;97318.66;;;-3.93;100.00
7433;BME280;32233;49.500;7.764;2024-01-15T04:38:44;97311.16;;;-3.96;100.00
7433;BME280;32233;49.500;7.764;2024-01-15T04:41:12;97304.94;;;-3.94;100.00
7433;BME280;32233;49.500;7.764;2024-01-15T04:43:39;97301.81;;;-3.88;100.00
7433;BME280;32233;49.500;7.764;2024-01-15T04:46:06;97308.31;;;-3.84;100.00
7433;BME280;32233;49.500;7.764;2024-01-15T04:48:33;97302.63;;;-3.87;100.00
7433;BME280;32233;49.500;7.764;2024-01-15T04:51:00;97299.78;;;-4.04;100.00
7433;BME280;32233;49.500;7.764;2024-01-15T04:53:27;97294.75;;;-3.95;100.00
7433;BME280;32233;49.500;7.764;2024-01-15T04:55:53;97294.28;;;-3.81;100.00
7433;BME280;32233;49.500;7.764;2024-01-15T04:58:20;97294.88;;;-3.87;100.00
7433;BME280;32233;49.500;7.764;2024-01-15T05:00:47;97299.06;;;-3.86;100.00
7433;BME280;32233;49.500;7.764;2024-01-15T05:03:13;97307.34;;;-3.83;100.00
7433;BME280;32233;49.500;7.764;2024-01-15T05:05:40;97295.91;;;-3.80;100.00
7433;BME280;32233;49.500;7.764;2024-01-15T05:08:07;97296.59;;;-3.78;100.00
7433;BME280;32233;49.500;7.764;2024-01-15T05:10:33;97298.38;;;-3.79;100.00
7433;BME280;32233;49.500;7.764;2024-01-15T05:13:00;97306.97;;;-3.88;100.00
7433;BME280;32233;49.500;7.764;2024-01-15T05:15:26;97300.03;;;-3.87;100.00
7433;BME280;32233;49.500;7.764;2024-01-15T05:17:53;97290.63;;;-3.88;100.00
7433;BME280;32233;49.500;7.764;2024-01-15T05:20:19;97279.63;;;-3.81;100.00
7433;BME280;32233;49.500;7.764;2024-01-15T05:22:46;97272.56;;;-3.88;100.00
7433;BME280;32233;49.500;7.764;2024-01-15T05:25:13;97285.47;;;-3.88;100.00
7433;BME280;32233;49.500;7.764;2024-01-15T05:27:39;97269.16;;;-3.89;100.00
7433;BME280;32233;49.500;7.764;2024-01-15T05:30:06;97278.16;;;-3.83;100.00
7433;BME280;32233;49.500;7.764;2024-01-15T05:32:33;97274.13;;;-3.68;100.00
7433;BME280;32233;49.500;7.764;2024-01-15T05:35:00;97266.59;;;-3.79;100.00
7433;BME280;32233;49.500;7.764;2024-01-15T05:37:26;97270.78;;;-3.78;100.00
7433;BME280;32233;49.500;7.764;2024-01-15T05:39:53;97272.94;;;-3.74;100.00
7433;BME280;32233;49.500;7.764;2024-01-15T05:42:19;97273.22;;;-3.77;100.00
7433;BME280;32233;49.500;7.764;2024-01-15T05:44:46;97266.53;;;-3.69;100.00
7433;BME280;32233;49.500;7.764;2024-01-15T05:47:12;97270.94;;;-3.80;100.00
7433;BME280;32233;49.500;7.764;2024-01-15T05:49:39;97267.25;;;-3.77;100.00
7433;BME280;32233;49.500;7.764;2024-01-15T05:52:06;97266.00;;;-3.63;100.00
7433;BME280;32233;49.500;7.764;2024-01-15T05:54:32;97260.84;;;-3.63;100.00
7433;BME280;32233;49.500;7.764;2024-01-15T05:56:59;97262.44;;;-3.62;100.00
7433;BME280;32233;49.500;7.764;2024-01-15T05:59:25;97253.47;;;-3.58;100.00
7433;BME280;32233;49.500;7.764;2024-01-15T06:01:52;97258.09;;;-3.62;100.00
7433;BME280;32233;49.500;7.764;2024-01-15T06:04:19;97253.69;;;-3.52;100.00
7433;BME280;32233;49.500;7.764;2024-01-15T06:06:46;97248.41;;;-3.50;100.00
7433;BME280;32233;49.500;7.764;2024-01-15T06:09:12;97251.97;;;-3.61;100.00
7433;BME280;32233;49.500;7.764;2024-01-15T06:11:39;97242.00;;;-3.56;100.00
7433;BME280;32233;49.500;7.764;2024-01-15T06:14:05;97245.03;;;-3.60;100.00
7433;BME280;32233;49.500;7.764;2024-01-15T06:16:32;97249.38;;;-3.61;100.00
7433;BME280;32233;49.500;7.764;2024-01-15T06:18:59;97245.03;;;-3.60;100.00
7433;BME280;32233;49.500;7.764;2024-01-15T06:21:26;97239.16;;;-3.53;100.00
7433;BME280;32233;49.500;7.764;2024-01-15T06:23:52;97242.00;;;-3.46;100.00
7433;BME280;32233;49.500;7.764;2024-01-15T06:26:19;97247.69;;;-3.42;100.00
7433;BME280;32233;49.500;7.764;2024-01-15T06:28:45;97252.56;;;-3.39;100.00
7433;BME280;32233;49.500;7.764;2024-01-15T06:31:12;97250.50;;;-3.36;100.00
7433;BME280;32233;49.500;7.764;2024-01-15T06:33:39;97256.91;;;-3.40;100.00
7433;BME280;32233;49.500;7.764;2024-01-15T06:36:06;97253.34;;;-3.29;100.00
7433;BME280;32233;49.500;7.764;2024-01-15T06:38:33;97254.53;;;-3.24;100.00
7433;BME280;32233;49.500;7.764;2024-01-15T06:41:00;97248.97;;;-3.29;100.00
7433;BME280;32233;49.500;7.764;2024-01-15T06:43:27;97247.25;;;-3.38;100.00
7433;BME280;32233;49.500;7.764;2024-01-15T06:45:53;97253.34;;;-3.29;100.00
7433;BME280;32233;49.500;7.764;2024-01-15T06:48:20;97250.31;;;-3.25;100.00
7433;BME280;32233;49.500;7.764;2024-01-15T06:50:47;97246.06;;;-3.16;100.00
7433;BME280;32233;49.500;7.764;2024-01-15T06:53:14;97248.41;;;-3.22;100.00
7433;BME280;32233;49.500;7.764;2024-01-15T06:55:40;97261.28;;;-3.13;100.00
7433;BME280;32233;49.500;7.764;2024-01-15T06:58:07;97258.88;;;-3.24;100.00
7433;BME280;32233;49.500;7.764;2024-01-15T07:00:33;97255.06;;;-3.20;100.00
7433;BME280;32233;49.500;7.764;2024-01-15T07:03:00;97249.34;;;-3.24;100.00
7433;BME280;32233;49.500;7.764;2024-01-15T07:05:26;97243.63;;;-3.17;100.00
7433;BME280;32233;49.500;7.764;2024-01-15T07:07:53;97238.47;;;-3.27;100.00
7433;BME280;32233;49.500;7.764;2024-01-15T07:10:19;97238.63;;;-3.29;100.00
7433;BME280;32233;49.500;7.764;2024-01-15T07:12:46;97242.72;;;-3.26;100.00
7433;BME280;32233;49.500;7.764;2024-01-15T07:15:13;97236.31;;;-3.22;100.00
7433;BME280;32233;49.500;7.764;2024-01-15T07:17:39;97225.81;;;-3.20;100.00
7433;BME280;32233;49.500;7.764;2024-01-15T07:20:07;97233.63;;;-3.30;100.00
7433;BME280;32233;49.500;7.764;2024-01-15T07:22:37;97226.09;;;-3.24;100.00
7433;BME280;32233;49.500;7.764;2024-01-15T07:25:04;97225.28;;;-3.24;100.00
7433;BME280;32233;49.500;7.764;2024-01-15T07:27:31;97230.25;;;-3.13;100.00
7433;BME280;32233;49.500;7.764;2024-01-15T07:29:58;97235.16;;;-3.10;100.00
7433;BME280;32233;49.500;7.764;2024-01-15T07:32:28;97233.94;;;-3.15;100.00
7433;BME280;32233;49.500;7.764;2024-01-15T07:34:55;97230.78;;;-3.09;100.00
7433;BME280;32233;49.500;7.764;2024-01-15T07:37:22;97226.50;;;-3.01;100.00
7433;BME280;32233;49.500;7.764;2024-01-15T07:39:49;97238.38;;;-3.08;100.00
7433;BME280;32233;49.500;7.764;2024-01-15T07:42:16;97242.47;;;-3.05;100.00
7433;BME280;32233;49.500;7.764;2024-01-15T07:44:42;97228.94;;;-2.99;100.00
7433;BME280;32233;49.500;7.764;2024-01-15T07:47:09;97235.06;;;-3.00;100.00
7433;BME280;32233;49.500;7.764;2024-01-15T07:49:36;97235.53;;;-3.05;100.00
7433;BME280;32233;49.500;7.764;2024-01-15T07:52:02;97232.78;;;-3.03;100.00
7433;BME280;32233;49.500;7.764;2024-01-15T07:54:31;97219.56;;;-3.00;100.00
7433;BME280;32233;49.500;7.764;2024-01-15T07:57:02;97222.44;;;-3.03;100.00
7433;BME280;32233;49.500;7.764;2024-01-15T07:59:31;97229.47;;;-2.95;100.00
7433;BME280;32233;49.500;7.764;2024-01-15T08:01:59;97222.16;;;-3.00;100.00
7433;BME280;32233;49.500;7.764;2024-01-15T08:04:26;97241.06;;;-3.00;100.00
7433;BME280;32233;49.500;7.764;2024-01-15T08:06:53;97227.16;;;-2.99;100.00
7433;BME280;32233;49.500;7.764;2024-01-15T08:09:20;97232.22;;;-2.97;100.00
7433;BME280;32233;49.500;7.764;2024-01-15T08:11:46;97240.84;;;-2.88;100.00
7433;BME280;32233;49.500;7.764;2024-01-15T08:14:13;97230.44;;;-2.96;100.00
7433;BME280;32233;49.500;7.764;2024-01-15T08:16:39;97233.25;;;-2.90;100.00
7433;BME280;32233;49.500;7.764;2024-01-15T08:19:07;97227.84;;;-2.96;100.00
7433;BME280;32233;49.500;7.764;2024-01-15T08:21:33;97230.16;;;-2.93;100.00
7433;BME280;32233;49.500;7.764;2024-01-15T08:24:01;97211.38;;;-2.95;100.00
7433;BME280;32233;49.500;7.764;2024-01-15T08:26:29;97227.56;;;-2.93;100.00
7433;BME280;32233;49.500;7.764;2024-01-15T08:28:56;97228.28;;;-2.83;100.00
7433;BME280;32233;49.500;7.764;2024-01-15T08:31:22;97226.91;;;-2.78;100.00
7433;BME280;32233;49.500;7.764;2024-01-15T08:33:49;97227.47;;;-2.84;100.00
7433;BME280;32233;49.500;7.764;2024-01-15T08:36:18;97224.25;;;-2.86;100.00
7433;BME280;32233;49.500;7.764;2024-01-15T08:38:44;97228.59;;;-2.86;100.00
7433;BME280;32233;49.500;7.764;2024-01-15T08:41:11;97223.94;;;-2.83;100.00
7433;BME280;32233;49.500;7.764;2024-01-15T08:43:38;97224.56;;;-2.27;100.00
7433;BME280;32233;49.500;7.764;2024-01-15T08:46:04;97214.88;;;-2.69;100.00
7433;BME280;32233;49.500;7.764;2024-01-15T08:48:31;97223.06;;;-2.73;100.00
7433;BME280;32233;49.500;7.764;2024-01-15T08:50:57;97232.81;;;-2.67;100.00
7433;BME280;32233;49.500;7.764;2024-01-15T08:53:24;97228.72;;;-2.70;100.00
7433;BME280;32233;49.500;7.764;2024-01-15T08:55:51;97225.50;;;-2.72;100.00
7433;BME280;32233;49.500;7.764;2024-01-15T08:58:17;97230.22;;;-2.67;100.00
7433;BME280;32233;49.500;7.764;2024-01-15T09:00:44;97233.63;;;-2.67;100.00
7433;BME280;32233;49.500;7.764;2024-01-15T09:03:11;97226.81;;;-2.68;100.00
7433;BME280;32233;49.500;7.764;2024-01-15T09:05:38;97220.09;;;-2.61;100.00
7433;BME280;32233;49.500;7.764;2024-01-15T09:08:05;97232.97;;;-2.69;100.00
7433;BME280;32233;49.500;7.764;2024-01-15T09:10:31;97224.00;;;-2.75;100.00
7433;BME280;32233;49.500;7.764;2024-01-15T09:12:58;97212.13;;;-2.67;100.00
7433;BME280;32233;49.500;7.764;2024-01-15T09:15:26;97216.84;;;-2.63;100.00
7433;BME280;32233;49.500;7.764;2024-01-15T09:17:54;97207.47;;;-2.64;100.00
7433;BME280;32233;49.500;7.764;2024-01-15T09:20:21;97206.22;;;-2.60;100.00
7433;BME280;32233;49.500;7.764;2024-01-15T09:22:47;97209.88;;;-2.62;100.00
7433;BME280;32233;49.500;7.764;2024-01-15T09:25:14;97211.38;;;-2.60;100.00
7433;BME280;32233;49.500;7.764;2024-01-15T09:27:41;97217.59;;;-2.53;100.00
7433;BME280;32233;49.500;7.764;2024-01-15T09:30:07;97217.59;;;-2.53;100.00
7433;BME280;32233;49.500;7.764;2024-01-15T09:32:35;97212.72;;;-2.56;100.00
7433;BME280;32233;49.500;7.764;2024-01-15T09:35:02;97206.91;;;-2.50;100.00
7433;BME280;32233;49.500;7.764;2024-01-15T09:37:28;97205.38;;;-2.42;100.00
7433;BME280;32233;49.500;7.764;2024-01-15T09:40:13;97211.34;;;-2.42;100.00
7433;BME280;32233;49.500;7.764;2024-01-15T09:42:42;97208.19;;;-2.36;100.00
7433;BME280;32233;49.500;7.764;2024-01-15T09:45:09;97207.66;;;-2.39;100.00
7433;BME280;32233;49.500;7.764;2024-01-15T09:47:37;97208.06;;;-2.26;100.00
7433;BME280;32233;49.500;7.764;2024-01-15T09:50:09;97201.56;;;-2.30;100.00
7433;BME280;32233;49.500;7.764;2024-01-15T09:52:36;97206.91;;;-2.32;100.00
7433;BME280;32233;49.500;7.764;2024-01-15T09:55:03;97199.00;;;-2.30;100.00
7433;BME280;32233;49.500;7.764;2024-01-15T09:57:32;97196.16;;;-2.19;100.00
7433;BME280;32233;49.500;7.764;2024-01-15T10:00:01;97192.81;;;-2.11;100.00
7433;BME280;32233;49.500;7.764;2024-01-15T10:02:31;97193.78;;;-2.12;100.00
7433;BME280;32233;49.500;7.764;2024-01-15T10:04:58;97193.84;;;-2.04;100.00
7433;BME280;32233;49.500;7.764;2024-01-15T10:07:25;97196.25;;;-2.03;100.00
7433;BME280;32233;49.500;7.764;2024-01-15T10:09:52;97198.81;;;-2.11;100.00
7433;BME280;32233;49.500;7.764;2024-01-15T10:12:23;97198.63;;;-2.09;100.00
7433;BME280;32233;49.500;7.764;2024-01-15T10:14:50;97205.47;;;-2.08;100.00
7433;BME280;32233;49.500;7.764;2024-01-15T10:17:17;97202.38;;;-2.12;100.00
7433;BME280;32233;49.500;7.764;2024-01-15T10:19:47;97197.38;;;-2.05;100.00
7433;BME280;32233;49.500;7.764;2024-01-15T10:22:16;97191.69;;;-2.09;100.00
7433;BME280;32233;49.500;7.764;2024-01-15T10:24:44;97190.19;;;-2.19;100.00
7433;BME280;32233;49.500;7.764;2024-01-15T10:27:14;97182.91;;;-2.16;100.00
7433;BME280;32233;49.500;7.764;2024-01-15T10:29:41;97180.41;;;-2.26;100.00
7433;BME280;32233;49.500;7.764;2024-01-15T10:32:09;97186.97;;;-2.13;100.00
7433;BME280;32233;49.500;7.764;2024-01-15T10:34:40;97185.56;;;-2.08;100.00
7433;BME280;32233;49.500;7.764;2024-01-15T10:37:08;97177.16;;;-2.02;100.00
7433;BME280;32233;49.500;7.764;2024-01-15T10:39:35;97172.19;;;-1.95;100.00
7433;BME280;32233;49.500;7.764;2024-01-15T10:42:03;97175.25;;;-2.00;100.00
7433;BME280;32233;49.500;7.764;2024-01-15T10:44:30;97170.75;;;-1.89;100.00
7433;BME280;32233;49.500;7.764;2024-01-15T10:46:57;97164.25;;;-1.93;100.00
7433;BME280;32233;49.500;7.764;2024-01-15T10:49:24;97170.13;;;-1.91;100.00
7433;BME280;32233;49.500;7.764;2024-01-15T10:51:58;97161.38;;;-1.90;100.00
7433;BME280;32233;49.500;7.764;2024-01-15T10:54:27;97159.78;;;-1.83;100.00
7433;BME280;32233;49.500;7.764;2024-01-15T10:56:56;97152.63;;;-1.89;100.00
7433;BME280;32233;49.500;7.764;2024-01-15T10:59:23;97157.25;;;-1.75;100.00
7433;BME280;32233;49.500;7.764;2024-01-15T11:01:51;97148.28;;;-1.81;100.00
7433;BME280;32233;49.500;7.764;2024-01-15T11:04:21;97149.94;;;-1.80;100.00
7433;BME280;32233;49.500;7.764;2024-01-15T11:06:52;97152.06;;;-1.75;100.00
7433;BME280;32233;49.500;7.764;2024-01-15T11:09:21;97151.25;;;-1.76;100.00
7433;BME280;32233;49.500;7.764;2024-01-15T11:11:52;97154.16;;;-1.79;100.00
7433;BME280;32233;49.500;7.764;2024-01-15T11:14:44;97152.88;;;-1.75;100.00
7433;BME280;32233;49.500;7.764;2024-01-15T11:17:12;97149.44;;;-1.83;100.00
7433;BME280;32233;49.500;7.764;2024-01-15T11:19:49;97153.00;;;-1.76;100.00
7433;BME280;32233;49.500;7.764;2024-01-15T11:25:04;97151.94;;;-1.65;100.00
7433;BME280;32233;49.500;7.764;2024-01-15T11:27:44;97153.69;;;-1.74;100.00
7433;BME280;32233;49.500;7.764;2024-01-15T11:30:14;97161.34;;;-1.56;100.00
7433;BME280;32233;49.500;7.764;2024-01-15T11:32:41;97161.50;;;-1.58;100.00
7433;BME280;32233;49.500;7.764;2024-01-15T11:35:08;97166.88;;;-1.59;100.00
7433;BME280;32233;49.500;7.764;2024-01-15T11:40:19;97178.66;;;-1.65;100.00
7433;BME280;32233;49.500;7.764;2024-01-15T11:42:46;97179.47;;;-1.64;100.00
7433;BME280;32233;49.500;7.764;2024-01-15T11:45:18;97180.84;;;-1.78;100.00
7433;BME280;32233;49.500;7.764;2024-01-15T11:50:21;97185.47;;;-1.56;100.00
7433;BME280;32233;49.500;7.764;2024-01-15T11:52:59;97184.03;;;-1.58;100.00
7433;BME280;32233;49.500;7.764;2024-01-15T11:55:37;97192.91;;;-1.61;100.00
7433;BME280;32233;49.500;7.764;2024-01-15T11:58:09;97190.53;;;-1.54;100.00
7433;BME280;32233;49.500;7.764;2024-01-15T12:00:42;97196.81;;;-1.57;100.00
7433;BME280;32233;49.500;7.764;2024-01-15T12:03:09;97201.22;;;-1.49;100.00
7433;BME280;32233;49.500;7.764;2024-01-15T12:05:37;97184.72;;;-1.48;100.00
7433;BME280;32233;49.500;7.764;2024-01-15T12:08:04;97181.38;;;-1.24;100.00
7433;BME280;32233;49.500;7.764;2024-01-15T12:10:38;97179.44;;;-1.30;100.00
7433;BME280;32233;49.500;7.764;2024-01-15T12:15:36;97182.19;;;-1.23;100.00
7433;BME280;32233;49.500;7.764;2024-01-15T12:18:03;97200.28;;;-1.40;100.00
7433;BME280;32233;49.500;7.764;2024-01-15T12:20:31;97195.75;;;-1.46;100.00
7433;BME280;32233;49.500;7.764;2024-01-15T12:22:58;97195.44;;;-1.43;100.00
7433;BME280;32233;49.500;7.764;2024-01-15T12:25:30;97194.22;;;-1.57;100.00
7433;BME280;32233;49.500;7.764;2024-01-15T12:27:57;97196.59;;;-1.29;100.00
7433;BME280;32233;49.500;7.764;2024-01-15T12:30:26;97199.03;;;-1.28;100.00
7433;BME280;32233;49.500;7.764;2024-01-15T12:32:52;97206.19;;;-1.21;100.00
7433;BME280;32233;49.500;7.764;2024-01-15T12:35:19;97204.09;;;-1.18;100.00
7433;BME280;32233;49.500;7.764;2024-01-15T12:37:47;97200.53;;;-1.17;100.00
7433;BME280;32233;49.500;7.764;2024-01-15T12:40:18;97212.84;;;-1.11;100.00
7433;BME280;32233;49.500;7.764;2024-01-15T12:42:45;97214.47;;;-1.18;100.00
7433;BME280;32233;49.500;7.764;2024-01-15T12:45:13;97212.56;;;-1.08;100.00
7433;BME280;32233;49.500;7.764;2024-01-15T12:47:40;97214.66;;;-1.03;100.00
7433;BME280;32233;49.500;7.764;2024-01-15T12:50:09;97208.19;;;-0.99;100.00
7433;BME280;32233;49.500;7.764;2024-01-15T12:52:45;97217.47;;;-0.80;100.00
7433;BME280;32233;49.500;7.764;2024-01-15T12:55:11;97227.06;;;-0.72;100.00
7433;BME280;32233;49.500;7.764;2024-01-15T12:57:38;97238.56;;;-0.83;100.00
7433;BME280;32233;49.500;7.764;2024-01-15T13:00:05;97219.88;;;-0.87;100.00
7433;BME280;32233;49.500;7.764;2024-01-15T13:02:34;97223.97;;;-0.76;100.00
7433;BME280;32233;49.500;7.764;2024-01-15T13:05:01;97222.84;;;-0.73;100.00
7433;BME280;32233;49.500;7.764;2024-01-15T13:07:27;97225.59;;;-0.67;100.00
7433;BME280;32233;49.500;7.764;2024-01-15T13:09:54;97231.28;;;-0.63;100.00
7433;BME280;32233;49.500;7.764;2024-01-15T13:12:21;97219.78;;;-0.61;100.00